createdAt,value
2019-03-17T00:01:30.806Z,7.60
2019-03-17T00:03:59.896Z,7.60
2019-03-17T00:06:28.990Z,7.50
2019-03-17T00:08:58.082Z,7.60
2019-03-17T00:11:27.180Z,7.50
2019-03-17T00:13:56.292Z,7.70
2019-03-17T00:16:25.404Z,7.50
2019-03-17T00:18:54.501Z,7.60
2019-03-17T00:21:23.624Z,7.50
2019-03-17T00:23:52.706Z,7.50
2019-03-17T00:26:21.798Z,7.50
2019-03-17T00:28:50.882Z,7.50
2019-03-17T00:31:24.205Z,7.60
2019-03-17T00:33:50.804Z,7.50
2019-03-17T00:36:19.893Z,7.50
2019-03-17T00:38:48.993Z,7.60
2019-03-17T00:41:21.226Z,7.60
2019-03-17T00:43:50.332Z,7.50
2019-03-17T00:46:19.495Z,7.60
2019-03-17T00:48:48.580Z,7.60
2019-03-17T00:51:17.677Z,7.50
2019-03-17T00:53:46.754Z,7.50
2019-03-17T00:56:15.834Z,7.40
2019-03-17T00:58:44.920Z,7.40
2019-03-17T01:01:14.094Z,7.40
2019-03-17T01:03:43.190Z,7.40
2019-03-17T01:06:12.264Z,7.40
2019-03-17T01:08:41.369Z,7.30
2019-03-17T01:11:10.457Z,7.30
2019-03-17T01:13:39.568Z,7.30
2019-03-17T01:16:08.651Z,7.20
2019-03-17T01:18:37.718Z,7.20
2019-03-17T01:21:10.379Z,7.20
2019-03-17T01:23:39.466Z,7.20
2019-03-17T01:26:08.653Z,7.10
2019-03-17T01:28:37.732Z,7.10
2019-03-17T01:31:08.010Z,7.20
2019-03-17T01:33:37.244Z,7.10
2019-03-17T01:36:06.423Z,7.20
2019-03-17T01:38:35.528Z,7.30
2019-03-17T01:41:04.606Z,7.30
2019-03-17T01:43:33.691Z,7.40
2019-03-17T01:46:02.766Z,7.40
2019-03-17T01:48:31.885Z,7.40
2019-03-17T01:51:01.024Z,7.40
2019-03-17T01:53:30.114Z,7.50
2019-03-17T01:55:59.200Z,7.50
2019-03-17T01:58:28.316Z,7.60
2019-03-17T02:00:57.416Z,7.50
2019-03-17T02:03:26.492Z,7.60
2019-03-17T02:05:55.604Z,7.60
2019-03-17T02:08:24.758Z,7.70
2019-03-17T02:10:53.859Z,7.70
2019-03-17T02:13:22.934Z,7.70
2019-03-17T02:15:51.992Z,7.70
2019-03-17T02:18:21.093Z,7.80
2019-03-17T02:20:50.182Z,7.80
2019-03-17T02:23:19.289Z,7.80
2019-03-17T02:25:48.378Z,7.80
2019-03-17T02:28:17.460Z,7.80
2019-03-17T02:30:46.606Z,7.80
2019-03-17T02:33:15.723Z,7.70
2019-03-17T02:35:44.818Z,7.70
2019-03-17T02:38:13.899Z,7.70
2019-03-17T02:40:43.013Z,7.70
2019-03-17T02:43:12.108Z,7.60
2019-03-17T02:45:41.272Z,7.70
2019-03-17T02:48:10.434Z,7.80
2019-03-17T02:50:39.505Z,7.80
2019-03-17T02:53:08.534Z,7.90
2019-03-17T02:55:37.617Z,8.00
2019-03-17T02:58:06.702Z,8.10
2019-03-17T03:00:35.803Z,8.20
2019-03-17T03:03:04.898Z,8.20
2019-03-17T03:05:34.086Z,8.20
2019-03-17T03:08:03.209Z,8.30
2019-03-17T03:10:32.481Z,8.30
2019-03-17T03:13:01.722Z,8.30
2019-03-17T03:15:30.812Z,8.20
2019-03-17T03:17:59.872Z,8.30
2019-03-17T03:20:29.070Z,8.20
2019-03-17T03:22:58.143Z,8.20
2019-03-17T03:25:27.217Z,8.30
2019-03-17T03:27:56.888Z,8.30
2019-03-17T03:30:26.035Z,8.30
2019-03-17T03:32:55.133Z,8.40
2019-03-17T03:35:26.963Z,8.40
2019-03-17T03:37:56.063Z,8.40
2019-03-17T03:40:25.167Z,8.40
2019-03-17T03:42:54.356Z,8.30
2019-03-17T03:45:23.469Z,8.30
2019-03-17T03:47:52.566Z,8.30
2019-03-17T03:50:21.667Z,8.20
2019-03-17T03:52:50.838Z,8.20
2019-03-17T03:55:19.946Z,8.20
2019-03-17T03:57:49.046Z,8.20
2019-03-17T04:00:18.143Z,8.20
2019-03-17T04:02:47.230Z,8.20
2019-03-17T04:05:16.315Z,8.10
2019-03-17T04:07:45.410Z,8.10
2019-03-17T04:10:14.496Z,8.10
2019-03-17T04:12:43.587Z,8.00
2019-03-17T04:15:13.009Z,8.00
2019-03-17T04:17:42.155Z,8.00
2019-03-17T04:20:11.625Z,7.90
2019-03-17T04:22:40.862Z,7.90
2019-03-17T04:25:10.258Z,7.90
2019-03-17T04:27:39.389Z,7.90
2019-03-17T04:30:08.520Z,7.90
2019-03-17T04:32:37.605Z,7.90
2019-03-17T04:35:06.709Z,7.90
2019-03-17T04:37:35.787Z,8.00
2019-03-17T04:40:05.850Z,8.00
2019-03-17T04:42:34.968Z,8.00
2019-03-17T04:45:04.109Z,8.10
2019-03-17T04:47:33.193Z,8.10
2019-03-17T04:50:02.287Z,8.10
2019-03-17T04:52:31.397Z,8.20
2019-03-17T04:55:00.485Z,8.20
2019-03-17T04:57:29.555Z,8.20
2019-03-17T04:59:58.645Z,8.20
2019-03-17T05:02:27.767Z,8.20
2019-03-17T05:04:56.856Z,8.30
2019-03-17T05:07:25.977Z,8.40
2019-03-17T05:09:55.041Z,8.40
2019-03-17T05:12:24.151Z,8.50
2019-03-17T05:14:53.275Z,8.60
2019-03-17T05:17:22.411Z,8.60
2019-03-17T05:19:51.523Z,8.70
2019-03-17T05:22:20.631Z,8.70
2019-03-17T05:24:49.750Z,8.80
2019-03-17T05:27:18.841Z,8.80
2019-03-17T05:29:47.939Z,8.80
2019-03-17T05:32:17.089Z,8.80
2019-03-17T05:34:46.263Z,8.80
2019-03-17T05:37:15.376Z,8.80
2019-03-17T05:39:44.448Z,8.80
2019-03-17T05:42:13.581Z,8.80
2019-03-17T05:44:42.665Z,8.80
2019-03-17T05:47:11.775Z,8.90
2019-03-17T05:49:40.881Z,8.80
2019-03-17T05:52:11.478Z,8.80
2019-03-17T05:54:40.639Z,8.80
2019-03-17T05:57:09.729Z,8.80
2019-03-17T05:59:38.839Z,8.80
2019-03-17T06:02:07.938Z,8.80
2019-03-17T06:04:37.013Z,8.90
2019-03-17T06:07:17.676Z,8.80
2019-03-17T06:09:36.901Z,8.90
2019-03-17T06:12:05.980Z,8.80
2019-03-17T06:14:35.069Z,8.90
2019-03-17T06:17:04.195Z,8.90
2019-03-17T06:19:33.281Z,8.90
2019-03-17T06:22:02.352Z,8.90
2019-03-17T06:24:31.380Z,8.90
2019-03-17T06:27:00.475Z,8.90
2019-03-17T06:29:29.554Z,8.90
2019-03-17T06:31:58.641Z,8.90
2019-03-17T06:34:27.760Z,9.00
2019-03-17T06:36:56.851Z,9.00
2019-03-17T06:39:25.943Z,9.10
2019-03-17T06:41:55.043Z,9.10
2019-03-17T06:44:24.138Z,9.20
2019-03-17T06:46:53.303Z,9.20
2019-03-17T06:49:22.465Z,9.20
2019-03-17T06:51:51.554Z,9.20
2019-03-17T06:54:20.654Z,9.30
2019-03-17T06:56:49.727Z,9.40
2019-03-17T06:59:18.808Z,9.40
2019-03-17T07:01:47.872Z,9.50
2019-03-17T07:04:16.950Z,9.50
2019-03-17T07:06:46.120Z,9.60
2019-03-17T07:09:15.257Z,9.60
2019-03-17T07:11:44.355Z,9.60
2019-03-17T07:14:13.426Z,9.60
2019-03-17T07:16:42.515Z,9.70
2019-03-17T07:19:11.613Z,9.70
2019-03-17T07:21:40.702Z,9.70
2019-03-17T07:24:09.778Z,9.70
2019-03-17T07:26:38.868Z,9.70
2019-03-17T07:29:07.974Z,9.70
2019-03-17T07:31:37.085Z,9.80
2019-03-17T07:34:06.180Z,9.80
2019-03-17T07:36:35.292Z,9.90
2019-03-17T07:39:11.853Z,10.00
2019-03-17T07:41:36.988Z,10.20
2019-03-17T07:44:06.073Z,10.30
2019-03-17T07:46:35.169Z,10.30
2019-03-17T07:49:04.282Z,10.30
2019-03-17T07:51:33.430Z,10.40
2019-03-17T07:54:02.586Z,10.40
2019-03-17T07:56:31.680Z,10.50
2019-03-17T07:59:00.791Z,10.50
2019-03-17T08:01:29.896Z,10.60
2019-03-17T08:03:58.994Z,10.40
2019-03-17T08:06:28.178Z,10.30
2019-03-17T08:08:57.272Z,10.30
2019-03-17T08:11:26.400Z,10.20
2019-03-17T08:13:55.490Z,10.30
2019-03-17T08:16:24.600Z,10.20
2019-03-17T08:18:53.686Z,10.30
2019-03-17T08:21:22.804Z,10.30
2019-03-17T08:23:51.890Z,10.30
2019-03-17T08:26:20.994Z,10.30
2019-03-17T08:28:50.082Z,10.30
2019-03-17T08:31:19.178Z,10.40
2019-03-17T08:33:48.278Z,10.40
2019-03-17T08:36:17.380Z,10.50
2019-03-17T08:38:46.498Z,10.50
2019-03-17T08:41:15.618Z,10.50
2019-03-17T08:43:53.702Z,10.40
2019-03-17T08:46:15.554Z,10.30
2019-03-17T08:48:44.672Z,10.30
2019-03-17T08:51:13.806Z,10.20
2019-03-17T08:53:42.935Z,10.20
2019-03-17T08:56:12.028Z,10.30
2019-03-17T08:58:41.246Z,10.40
2019-03-17T09:01:10.360Z,10.40
2019-03-17T09:03:39.457Z,10.40
2019-03-17T09:06:08.582Z,10.40
2019-03-17T09:08:37.670Z,10.40
2019-03-17T09:11:06.785Z,10.40
2019-03-17T09:13:35.898Z,10.50
2019-03-17T09:16:04.991Z,10.50
2019-03-17T09:18:34.102Z,10.60
2019-03-17T09:21:03.176Z,10.70
2019-03-17T09:23:32.348Z,10.60
2019-03-17T09:26:01.434Z,10.60
2019-03-17T09:28:30.610Z,10.50
2019-03-17T09:30:59.694Z,10.40
2019-03-17T09:33:28.818Z,10.30
2019-03-17T09:35:57.902Z,10.20
2019-03-17T09:38:27.005Z,10.10
2019-03-17T09:40:56.115Z,10.10
2019-03-17T09:43:25.215Z,10.10
2019-03-17T09:45:54.322Z,10.10
2019-03-17T09:48:23.414Z,10.10
2019-03-17T09:50:52.569Z,10.10
2019-03-17T09:53:21.675Z,10.20
2019-03-17T09:55:52.699Z,10.20
2019-03-17T09:58:21.776Z,10.20
2019-03-17T10:00:50.870Z,10.00
2019-03-17T10:03:19.962Z,9.80
2019-03-17T10:05:49.625Z,9.70
2019-03-17T10:08:18.841Z,9.50
2019-03-17T10:10:47.953Z,9.50
2019-03-17T10:13:17.052Z,9.40
2019-03-17T10:15:46.130Z,9.40
2019-03-17T10:18:15.395Z,9.50
2019-03-17T10:20:44.465Z,9.50
2019-03-17T10:23:13.590Z,9.50
2019-03-17T10:25:42.666Z,9.40
2019-03-17T10:28:11.766Z,9.40
2019-03-17T10:30:40.876Z,9.40
2019-03-17T10:33:09.966Z,9.30
2019-03-17T10:35:39.072Z,9.20
2019-03-17T10:38:08.148Z,9.10
2019-03-17T10:40:37.301Z,9.10
2019-03-17T10:43:06.392Z,8.90
2019-03-17T10:45:35.515Z,8.80
2019-03-17T10:48:04.595Z,8.60
2019-03-17T10:50:33.679Z,8.40
2019-03-17T10:53:02.786Z,8.20
2019-03-17T10:55:31.889Z,8.00
2019-03-17T10:58:01.018Z,7.80
2019-03-17T11:00:30.117Z,7.60
2019-03-17T11:02:59.211Z,7.10
2019-03-17T11:05:28.307Z,6.90
2019-03-17T11:07:57.428Z,6.70
2019-03-17T11:10:26.583Z,6.50
2019-03-17T11:12:55.729Z,6.40
2019-03-17T11:15:24.835Z,6.20
2019-03-17T11:17:53.930Z,6.10
2019-03-17T11:20:23.059Z,6.00
2019-03-17T11:22:52.168Z,6.00
2019-03-17T11:25:21.297Z,6.00
2019-03-17T11:27:50.417Z,6.10
2019-03-17T11:30:19.538Z,6.10
2019-03-17T11:32:48.636Z,6.20
2019-03-17T11:35:17.729Z,6.30
2019-03-17T11:37:46.808Z,6.30
2019-03-17T11:40:15.917Z,6.40
2019-03-17T11:42:45.147Z,6.40
2019-03-17T11:45:14.354Z,6.30
2019-03-17T11:47:44.044Z,6.40
2019-03-17T11:50:13.537Z,6.30
2019-03-17T11:52:42.641Z,6.30
2019-03-17T11:55:11.857Z,6.30
2019-03-17T11:57:41.659Z,6.30
2019-03-17T12:00:13.153Z,6.30
2019-03-17T12:02:42.239Z,6.40
2019-03-17T12:05:11.345Z,6.30
2019-03-17T12:07:40.430Z,6.50
2019-03-17T12:10:11.315Z,6.50
2019-03-17T12:12:40.397Z,6.70
2019-03-17T12:15:11.359Z,6.70
2019-03-17T12:17:40.445Z,6.70
2019-03-17T12:20:10.249Z,6.80
2019-03-17T12:22:39.735Z,7.00
2019-03-17T12:25:11.629Z,7.00
2019-03-17T12:27:40.901Z,7.10
2019-03-17T12:30:16.203Z,7.20
2019-03-17T12:32:45.325Z,7.30
2019-03-17T12:35:14.443Z,7.40
2019-03-17T12:37:43.525Z,7.30
2019-03-17T12:40:12.599Z,7.40
2019-03-17T12:42:41.799Z,7.40
2019-03-17T12:45:10.937Z,7.50
2019-03-17T12:47:40.034Z,7.50
2019-03-17T12:50:09.861Z,7.60
2019-03-17T12:52:38.945Z,7.70
2019-03-17T12:55:08.307Z,7.80
2019-03-17T12:57:37.403Z,8.00
2019-03-17T13:00:08.203Z,8.00
2019-03-17T13:02:37.318Z,8.10
2019-03-17T13:05:06.403Z,8.10
2019-03-17T13:07:35.489Z,8.20
2019-03-17T13:10:14.974Z,8.30
2019-03-17T13:12:35.935Z,8.40
2019-03-17T13:15:05.353Z,8.40
2019-03-17T13:17:34.527Z,8.30
2019-03-17T13:20:03.676Z,8.30
2019-03-17T13:22:32.765Z,8.20
2019-03-17T13:25:01.916Z,8.30
2019-03-17T13:27:31.003Z,8.30
2019-03-17T13:30:00.179Z,8.20
2019-03-17T13:32:29.534Z,8.20
2019-03-17T13:34:58.631Z,8.40
2019-03-17T13:37:27.730Z,8.60
2019-03-17T13:39:56.817Z,8.90
2019-03-17T13:42:25.897Z,9.10
2019-03-17T13:44:55.034Z,9.20
2019-03-17T13:47:24.121Z,9.30
2019-03-17T13:49:53.311Z,9.40
2019-03-17T13:52:22.406Z,9.60
2019-03-17T13:54:51.476Z,9.70
2019-03-17T13:57:20.675Z,9.80
2019-03-17T13:59:49.766Z,9.90
2019-03-17T14:02:18.903Z,9.90
2019-03-17T14:04:48.054Z,9.70
2019-03-17T14:07:17.191Z,9.30
2019-03-17T14:09:46.368Z,8.50
2019-03-17T14:12:15.476Z,7.80
2019-03-17T14:14:46.763Z,7.30
2019-03-17T14:17:15.385Z,7.00
2019-03-17T14:19:44.461Z,6.90
2019-03-17T14:22:13.546Z,6.70
2019-03-17T14:27:25.159Z,6.80
2019-03-17T14:29:54.322Z,6.90
2019-03-17T14:32:24.255Z,6.90
2019-03-17T14:34:53.427Z,7.10
2019-03-17T14:37:22.592Z,7.10
2019-03-17T14:39:51.656Z,7.00
2019-03-17T14:42:20.755Z,6.90
2019-03-17T14:44:49.925Z,6.80
2019-03-17T14:47:18.961Z,6.70
2019-03-17T14:49:48.046Z,6.80
2019-03-17T14:52:17.159Z,6.70
2019-03-17T14:54:46.229Z,6.80
2019-03-17T14:57:15.303Z,6.90
2019-03-17T14:59:44.308Z,6.90
2019-03-17T15:02:13.444Z,7.00
2019-03-17T15:04:42.469Z,7.00
2019-03-17T15:07:11.566Z,7.00
2019-03-17T15:09:40.656Z,7.10
2019-03-17T15:12:09.766Z,7.10
2019-03-17T15:14:38.866Z,7.20
2019-03-17T15:17:07.946Z,7.20
2019-03-17T15:19:37.039Z,7.20
2019-03-17T15:22:06.152Z,7.20
2019-03-17T15:24:35.257Z,7.30
2019-03-17T15:27:04.338Z,7.20
2019-03-17T15:29:33.446Z,7.30
2019-03-17T15:32:02.537Z,7.20
2019-03-17T15:34:31.616Z,7.00
2019-03-17T15:37:00.729Z,6.90
2019-03-17T15:39:29.928Z,6.80
2019-03-17T15:41:59.016Z,6.70
2019-03-17T15:44:28.160Z,6.70
2019-03-17T15:46:57.272Z,6.70
2019-03-17T15:49:26.389Z,6.50
2019-03-17T15:51:55.492Z,6.50
2019-03-17T15:54:24.635Z,6.40
2019-03-17T15:56:54.048Z,6.40
2019-03-17T15:59:23.132Z,6.40
2019-03-17T16:01:52.228Z,6.40
2019-03-17T16:04:21.298Z,6.40
2019-03-17T16:06:50.430Z,6.40
2019-03-17T16:09:19.534Z,6.40
2019-03-17T16:11:48.604Z,6.40
2019-03-17T16:14:17.701Z,6.50
2019-03-17T16:16:47.077Z,6.50
2019-03-17T16:19:16.197Z,6.60
2019-03-17T16:21:46.097Z,6.70
2019-03-17T16:24:15.288Z,6.80
2019-03-17T16:26:44.409Z,6.90
2019-03-17T16:29:13.845Z,6.90
2019-03-17T16:31:43.101Z,6.90
2019-03-17T16:34:12.258Z,6.90
2019-03-17T16:36:41.342Z,6.90
2019-03-17T16:39:10.436Z,6.70
2019-03-17T16:41:43.743Z,6.60
2019-03-17T16:44:10.370Z,6.50
2019-03-17T16:46:39.546Z,6.40
2019-03-17T16:49:08.678Z,6.40
2019-03-17T16:51:37.747Z,6.20
2019-03-17T16:54:06.893Z,6.10
2019-03-17T16:56:35.971Z,6.10
2019-03-17T16:59:05.073Z,6.00
2019-03-17T17:01:34.168Z,5.90
2019-03-17T17:04:04.562Z,5.90
2019-03-17T17:06:33.674Z,5.80
2019-03-17T17:09:02.771Z,5.50
2019-03-17T17:11:31.877Z,5.50
2019-03-17T17:14:00.968Z,5.40
2019-03-17T17:16:30.059Z,5.30
2019-03-17T17:18:59.079Z,5.20
2019-03-17T17:21:28.188Z,5.20
2019-03-17T17:23:57.297Z,5.20
2019-03-17T17:26:36.577Z,5.10
2019-03-17T17:28:57.217Z,5.10
2019-03-17T17:31:26.283Z,5.00
2019-03-17T17:33:55.382Z,5.10
2019-03-17T17:36:24.478Z,5.10
2019-03-17T17:38:53.586Z,5.00
2019-03-17T17:41:22.687Z,4.90
2019-03-17T17:43:51.757Z,4.80
2019-03-17T17:46:20.856Z,4.80
2019-03-17T17:48:49.935Z,4.70
2019-03-17T17:51:19.032Z,4.60
2019-03-17T17:53:48.124Z,4.60
2019-03-17T17:56:17.235Z,4.60
2019-03-17T17:58:46.407Z,4.50
2019-03-17T18:01:15.585Z,4.50
2019-03-17T18:03:51.683Z,4.50
2019-03-17T18:06:15.594Z,4.50
2019-03-17T18:08:44.662Z,4.50
2019-03-17T18:11:13.740Z,4.50
2019-03-17T18:13:42.825Z,4.60
2019-03-17T18:16:11.924Z,4.60
2019-03-17T18:18:41.015Z,4.60
2019-03-17T18:21:10.117Z,4.60
2019-03-17T18:23:39.387Z,4.60
2019-03-17T18:26:08.577Z,4.60
2019-03-17T18:28:38.287Z,4.50
2019-03-17T18:31:07.397Z,4.50
2019-03-17T18:33:36.492Z,4.40
2019-03-17T18:36:05.704Z,4.40
2019-03-17T18:38:34.849Z,4.40
2019-03-17T18:41:04.005Z,4.40
2019-03-17T18:43:33.136Z,4.30
2019-03-17T18:46:02.318Z,4.30
2019-03-17T18:48:31.384Z,4.30
2019-03-17T18:51:00.471Z,4.30
2019-03-17T18:53:29.565Z,4.40
2019-03-17T18:55:58.659Z,4.40
2019-03-17T18:58:27.771Z,4.30
2019-03-17T19:00:56.874Z,4.30
2019-03-17T19:03:25.955Z,4.20
2019-03-17T19:05:55.143Z,4.10
2019-03-17T19:08:24.221Z,4.10
2019-03-17T19:10:53.321Z,4.10
2019-03-17T19:13:22.430Z,4.00
2019-03-17T19:15:51.554Z,4.00
2019-03-17T19:18:20.640Z,4.00
2019-03-17T19:20:49.707Z,3.90
2019-03-17T19:23:18.831Z,3.90
2019-03-17T19:25:47.949Z,3.80
2019-03-17T19:28:17.039Z,3.80
2019-03-17T19:30:46.132Z,3.70
2019-03-17T19:33:15.337Z,3.60
2019-03-17T19:35:44.510Z,3.50
2019-03-17T19:38:13.522Z,3.60
2019-03-17T19:40:45.543Z,3.50
2019-03-17T19:43:14.647Z,3.50
2019-03-17T19:45:43.699Z,3.50
2019-03-17T19:48:12.777Z,3.50
2019-03-17T19:50:41.901Z,3.50
2019-03-17T19:53:10.961Z,3.50
2019-03-17T19:55:40.063Z,3.40
2019-03-17T19:58:09.201Z,3.40
2019-03-17T20:00:38.308Z,3.40
2019-03-17T20:03:07.531Z,3.30
2019-03-17T20:05:36.616Z,3.30
2019-03-17T20:08:05.704Z,3.20
2019-03-17T20:10:34.890Z,3.20
2019-03-17T20:13:11.381Z,3.10
2019-03-17T20:15:34.873Z,3.10
2019-03-17T20:18:04.087Z,3.00
2019-03-17T20:20:33.195Z,3.00
2019-03-17T20:23:02.296Z,3.00
2019-03-17T20:25:31.389Z,3.00
2019-03-17T20:28:00.492Z,3.00
2019-03-17T20:30:29.567Z,3.00
2019-03-17T20:32:58.694Z,3.00
2019-03-17T20:35:27.770Z,3.00
2019-03-17T20:37:56.852Z,3.00
2019-03-17T20:40:26.099Z,3.00
2019-03-17T20:42:55.199Z,3.00
2019-03-17T20:45:24.302Z,3.00
2019-03-17T20:47:53.390Z,3.00
2019-03-17T20:50:22.513Z,3.00
2019-03-17T20:52:51.593Z,2.90
2019-03-17T20:55:20.702Z,2.90
2019-03-17T20:57:49.834Z,2.90
2019-03-17T21:00:19.055Z,2.80
2019-03-17T21:02:48.289Z,2.80
2019-03-17T21:05:17.382Z,2.70
2019-03-17T21:07:46.477Z,2.70
2019-03-17T21:10:15.561Z,2.70
2019-03-17T21:12:44.640Z,2.70
2019-03-17T21:15:13.720Z,2.60
2019-03-17T21:17:42.851Z,2.60
2019-03-17T21:20:13.533Z,2.50
2019-03-17T21:22:42.726Z,2.50
2019-03-17T21:25:11.875Z,2.50
2019-03-17T21:27:40.959Z,2.60
2019-03-17T21:30:13.105Z,2.60
2019-03-17T21:32:42.231Z,2.50
2019-03-17T21:35:11.386Z,2.50
2019-03-17T21:37:40.503Z,2.50
2019-03-17T21:40:09.916Z,2.50
2019-03-17T21:42:39.085Z,2.60
2019-03-17T21:45:08.582Z,2.60
2019-03-17T21:47:37.693Z,2.60
2019-03-17T21:50:08.164Z,2.60
2019-03-17T21:52:37.250Z,2.60
2019-03-17T21:55:06.576Z,2.60
2019-03-17T21:57:35.694Z,2.60
2019-03-17T22:00:05.366Z,2.60
2019-03-17T22:02:34.548Z,2.50
2019-03-17T22:05:03.661Z,2.50
2019-03-17T22:07:32.808Z,2.50
2019-03-17T22:10:01.898Z,2.50
2019-03-17T22:12:31.023Z,2.40
2019-03-17T22:15:00.349Z,2.40
2019-03-17T22:17:29.673Z,2.40
2019-03-17T22:19:58.780Z,2.40
2019-03-17T22:22:27.874Z,2.40
2019-03-17T22:24:57.035Z,2.40
2019-03-17T22:27:26.228Z,2.40
2019-03-17T22:29:55.308Z,2.30
2019-03-17T22:32:24.459Z,2.30
2019-03-17T22:34:53.535Z,2.30
2019-03-17T22:37:22.830Z,2.30
2019-03-17T22:39:51.924Z,2.30
2019-03-17T22:42:21.023Z,2.30
2019-03-17T22:44:50.031Z,2.30
2019-03-17T22:47:19.210Z,2.30
2019-03-17T22:49:48.405Z,2.40
2019-03-17T22:52:17.556Z,2.40
2019-03-17T22:54:47.012Z,2.40
2019-03-17T22:57:16.187Z,2.40
2019-03-17T22:59:45.277Z,2.50
2019-03-17T23:02:14.390Z,2.60
2019-03-17T23:04:44.190Z,2.60
2019-03-17T23:07:13.334Z,2.60
2019-03-17T23:09:42.417Z,2.50
2019-03-17T23:12:11.442Z,2.50
2019-03-17T23:14:40.613Z,2.40
2019-03-17T23:17:09.722Z,2.30
2019-03-17T23:19:39.044Z,2.30
2019-03-17T23:22:08.116Z,2.30
2019-03-17T23:24:37.194Z,2.30
2019-03-17T23:27:06.286Z,2.30
2019-03-17T23:29:35.400Z,2.20
2019-03-17T23:32:04.452Z,2.20
2019-03-17T23:34:33.528Z,2.10
2019-03-17T23:37:02.680Z,2.10
2019-03-17T23:39:31.754Z,2.00
2019-03-17T23:42:00.852Z,2.00
2019-03-17T23:44:29.918Z,2.00
2019-03-17T23:46:59.012Z,2.00
2019-03-17T23:49:28.061Z,2.00
2019-03-17T23:51:57.128Z,2.00
2019-03-17T23:54:26.220Z,1.90
2019-03-17T23:56:55.295Z,1.90
2019-03-17T23:59:24.392Z,1.90
